Time;durP1;ratioP1;P1;durP2;ratioP2;P2;SDS_P1;SDS_P2;PMS_P1;PMS_P2;Temp;Humidity;BMP_temperature;BMP_pressure;BME280_temperature;BME280_humidity;BME280_pressure;Samples;Min_cycle;Max_cycle;Signal;HPM_P1;HPM_P2
2022/04/12 00:02:00;;;;;;;;;;;23.20;47.60;;;;;;5092166;28;1005;-37
2022/04/12 00:04:27;;;;;;;;;;;23.20;47.40;;;;;;5093428;28;1137;-37
2022/04/12 00:06:54;;;;;;;;;;;23.20;47.60;;;;;;5092899;28;884;-37
2022/04/12 00:09:20;;;;;;;;;;;23.20;47.40;;;;;;5092746;28;976;-37
2022/04/12 00:11:48;;;;;;;;;;;23.20;47.40;;;;;;5093185;28;1195;-36
2022/04/12 00:14:15;;;;;;;;;;;23.20;47.40;;;;;;5092208;28;924;-38
2022/04/12 00:16:42;;;;;;;;;;;23.10;47.40;;;;;;5092492;28;1906;-37
2022/04/12 00:19:10;;;;;;;;;;;23.20;47.40;;;;;;5091901;28;993;-37
2022/04/12 00:21:37;;;;;;;;;;;23.20;47.40;;;;;;5092953;28;1039;-38
2022/04/12 00:24:04;;;;;;;;;;;23.10;47.40;;;;;;5092689;28;1015;-37
2022/04/12 00:26:31;;;;;;;;;;;23.10;47.50;;;;;;5092808;28;995;-37
2022/04/12 00:28:59;;;;;;;;;;;23.10;47.40;;;;;;5093628;28;908;-37
2022/04/12 00:31:25;;;;;;;;;;;23.10;47.50;;;;;;5096844;28;908;-37
2022/04/12 00:33:52;;;;;;;;;;;23.10;47.60;;;;;;5097122;28;936;-37
2022/04/12 00:36:19;;;;;;;;;;;23.10;47.60;;;;;;5097600;28;924;-37
2022/04/12 00:38:45;;;;;;;;;;;23.10;47.60;;;;;;5096598;28;1898;-37
2022/04/12 00:41:12;;;;;;;;;;;23.10;47.70;;;;;;5097507;28;884;-37
2022/04/12 00:43:39;;;;;;;;;;;23.10;47.60;;;;;;5097303;28;989;-36
2022/04/12 00:46:07;;;;;;;;;;;23.10;47.70;;;;;;5097630;28;1027;-37
2022/04/12 00:48:34;;;;;;;;;;;23.10;47.60;;;;;;5096664;28;1003;-37
2022/04/12 00:51:01;;;;;;;;;;;23.00;47.60;;;;;;5096804;28;834;-37
2022/04/12 00:53:29;;;;;;;;;;;23.10;47.70;;;;;;5097042;28;1010;-36
2022/04/12 00:55:56;;;;;;;;;;;23.10;47.80;;;;;;5096478;28;1042;-37
2022/04/12 00:58:23;;;;;;;;;;;23.10;47.70;;;;;;5096988;28;1910;-37
2022/04/12 01:00:50;;;;;;;;;;;23.10;47.80;;;;;;5096487;28;988;-36
2022/04/12 01:03:18;;;;;;;;;;;23.10;47.70;;;;;;5095468;28;993;-37
2022/04/12 01:05:45;;;;;;;;;;;23.00;47.70;;;;;;5096750;28;932;-37
2022/04/12 01:08:12;;;;;;;;;;;23.00;47.70;;;;;;5095446;28;952;-37
2022/04/12 01:10:38;;;;;;;;;;;23.00;47.70;;;;;;5095331;28;1111;-37
2022/04/12 01:13:06;;;;;;;;;;;23.10;47.70;;;;;;5096564;28;869;-37
2022/04/12 01:15:32;;;;;;;;;;;23.00;47.70;;;;;;5097207;28;999;-37
2022/04/12 01:17:59;;;;;;;;;;;23.00;47.70;;;;;;5096526;28;1980;-37
2022/04/12 01:20:30;;;;;;;;;;;23.00;47.60;;;;;;5095778;28;972;-37
2022/04/12 01:22:59;;;;;;;;;;;23.00;47.70;;;;;;5096175;28;957;-37
2022/04/12 01:25:27;;;;;;;;;;;23.00;47.60;;;;;;5095497;28;1135;-36
2022/04/12 01:27:54;;;;;;;;;;;23.00;47.70;;;;;;5095106;28;1039;-37
2022/04/12 01:30:21;;;;;;;;;;;23.00;47.70;;;;;;5095764;28;1059;-37
2022/04/12 01:32:48;;;;;;;;;;;23.00;47.70;;;;;;5096406;28;1012;-38
2022/04/12 01:35:14;;;;;;;;;;;23.00;47.70;;;;;;5095163;28;952;-37
2022/04/12 01:37:41;;;;;;;;;;;23.00;47.70;;;;;;5095999;28;1898;-37
2022/04/12 01:40:09;;;;;;;;;;;23.00;47.70;;;;;;5094618;28;1135;-36
2022/04/12 01:42:38;;;;;;;;;;;23.00;47.80;;;;;;5094848;28;892;-37
2022/04/12 01:45:05;;;;;;;;;;;23.00;47.90;;;;;;5095809;28;947;-37
2022/04/12 01:47:32;;;;;;;;;;;23.00;47.80;;;;;;5095800;28;953;-37
2022/04/12 01:49:59;;;;;;;;;;;23.00;47.80;;;;;;5095507;28;1013;-36
2022/04/12 01:52:26;;;;;;;;;;;23.00;47.80;;;;;;5094794;28;1008;-37
2022/04/12 01:54:52;;;;;;;;;;;23.00;47.80;;;;;;5095075;28;927;-37
2022/04/12 01:57:19;;;;;;;;;;;22.90;47.90;;;;;;5095756;28;1982;-37
2022/04/12 01:59:47;;;;;;;;;;;22.90;47.90;;;;;;5095639;28;923;-37
2022/04/12 02:02:14;;;;;;;;;;;22.90;49.10;;;;;;5093896;28;934;-37
2022/04/12 02:04:40;;;;;;;;;;;22.90;48.10;;;;;;5095762;28;988;-37
2022/04/12 02:07:08;;;;;;;;;;;22.90;48.00;;;;;;5096034;28;961;-37
2022/04/12 02:09:35;;;;;;;;;;;22.90;47.90;;;;;;5095026;28;1084;-37
2022/04/12 02:12:01;;;;;;;;;;;22.90;47.90;;;;;;5094862;28;937;-37
2022/04/12 02:14:28;;;;;;;;;;;22.90;47.90;;;;;;5094424;28;994;-37
2022/04/12 02:16:56;;;;;;;;;;;22.90;48.00;;;;;;5095249;28;959;-37
2022/04/12 02:19:23;;;;;;;;;;;22.90;48.00;;;;;;5094808;28;1980;-36
2022/04/12 02:21:50;;;;;;;;;;;22.90;47.90;;;;;;5094081;28;1783;-37
2022/04/12 02:27:29;;;;;;;;;;;22.90;48.10;;;;;;5093717;28;1104;-37
2022/04/12 02:29:56;;;;;;;;;;;22.90;47.90;;;;;;5092639;28;888;-37
2022/04/12 02:32:24;;;;;;;;;;;22.90;47.90;;;;;;5094451;28;936;-37
2022/04/12 02:34:51;;;;;;;;;;;22.90;47.90;;;;;;5094188;28;984;-37
2022/04/12 02:37:17;;;;;;;;;;;22.90;48.00;;;;;;5095139;28;2307;-37
2022/04/12 02:39:44;;;;;;;;;;;22.90;48.00;;;;;;5094017;28;1122;-36
2022/04/12 02:42:11;;;;;;;;;;;22.90;48.00;;;;;;5093588;28;1019;-35
2022/04/12 02:44:37;;;;;;;;;;;22.90;48.00;;;;;;5094212;28;1022;-36
2022/04/12 02:47:04;;;;;;;;;;;22.90;48.10;;;;;;5094762;28;1063;-36
2022/04/12 02:49:32;;;;;;;;;;;22.90;48.00;;;;;;5095025;28;928;-36
2022/04/12 02:51:59;;;;;;;;;;;22.80;48.00;;;;;;5094331;28;964;-36
2022/04/12 02:54:26;;;;;;;;;;;22.90;48.10;;;;;;5094938;28;904;-35
2022/04/12 02:56:53;;;;;;;;;;;22.90;48.10;;;;;;5094042;28;1033;-35
2022/04/12 02:59:19;;;;;;;;;;;22.80;48.10;;;;;;5093865;28;1878;-37
2022/04/12 03:01:46;;;;;;;;;;;22.80;48.00;;;;;;5093917;28;993;-37
2022/04/12 03:04:13;;;;;;;;;;;22.80;48.10;;;;;;5093041;28;1028;-37
2022/04/12 03:06:41;;;;;;;;;;;22.90;48.10;;;;;;5094167;28;897;-37
2022/04/12 03:09:08;;;;;;;;;;;22.90;48.20;;;;;;5092295;28;1023;-37
2022/04/12 03:11:35;;;;;;;;;;;22.80;48.10;;;;;;5093318;28;885;-36
2022/04/12 03:14:02;;;;;;;;;;;22.80;48.00;;;;;;5093251;28;1028;-37
2022/04/12 03:16:29;;;;;;;;;;;22.80;48.10;;;;;;5093120;28;1851;-37
2022/04/12 03:18:56;;;;;;;;;;;22.80;48.20;;;;;;5093670;28;1898;-37
2022/04/12 03:21:22;;;;;;;;;;;22.80;48.20;;;;;;5094042;28;968;-37
2022/04/12 03:23:51;;;;;;;;;;;22.80;48.20;;;;;;5093074;28;960;-36
2022/04/12 03:26:17;;;;;;;;;;;22.80;48.20;;;;;;5094471;28;1036;-37
2022/04/12 03:28:44;;;;;;;;;;;22.80;48.10;;;;;;5092324;28;973;-37
2022/04/12 03:31:11;;;;;;;;;;;22.80;48.10;;;;;;5093165;28;1889;-37
2022/04/12 03:33:38;;;;;;;;;;;22.80;48.10;;;;;;5094097;28;947;-35
2022/04/12 03:36:04;;;;;;;;;;;22.80;48.10;;;;;;5094239;28;1327;-37
2022/04/12 03:38:32;;;;;;;;;;;22.80;48.10;;;;;;5093307;28;1906;-37
2022/04/12 03:41:00;;;;;;;;;;;22.80;48.10;;;;;;5093722;28;956;-37
2022/04/12 03:43:27;;;;;;;;;;;22.80;48.00;;;;;;5091891;28;1011;-37
2022/04/12 03:45:54;;;;;;;;;;;22.80;48.20;;;;;;5091125;28;880;-37
2022/04/12 03:48:20;;;;;;;;;;;22.80;48.10;;;;;;5092014;28;861;-37
2022/04/12 03:50:47;;;;;;;;;;;22.80;48.20;;;;;;5092681;28;1007;-37
2022/04/12 03:53:13;;;;;;;;;;;22.80;48.00;;;;;;5092866;28;1118;-37
2022/04/12 03:55:46;;;;;;;;;;;22.80;48.00;;;;;;5092781;28;972;-37
2022/04/12 03:58:19;;;;;;;;;;;22.80;48.10;;;;;;5091396;28;1910;-37
2022/04/12 04:00:46;;;;;;;;;;;22.80;48.20;;;;;;5091558;28;1004;-37
2022/04/12 04:03:13;;;;;;;;;;;22.80;48.20;;;;;;5092045;28;1776;-37
2022/04/12 04:05:39;;;;;;;;;;;22.80;48.10;;;;;;5092328;28;951;-37
2022/04/12 04:08:06;;;;;;;;;;;22.80;48.20;;;;;;5091882;28;972;-38
2022/04/12 04:10:33;;;;;;;;;;;22.80;48.00;;;;;;5092017;28;1209;-36
2022/04/12 04:13:01;;;;;;;;;;;22.80;48.30;;;;;;5093336;28;936;-37
2022/04/12 04:15:31;;;;;;;;;;;22.80;48.20;;;;;;5093195;28;981;-37
2022/04/12 04:17:58;;;;;;;;;;;22.80;48.30;;;;;;5093544;28;1917;-37
2022/04/12 04:20:25;;;;;;;;;;;22.80;48.30;;;;;;5093450;28;974;-38
2022/04/12 04:22:51;;;;;;;;;;;22.80;48.10;;;;;;5093841;28;897;-37
2022/04/12 04:25:18;;;;;;;;;;;22.80;48.10;;;;;;5092342;28;838;-37
2022/04/12 04:27:45;;;;;;;;;;;22.90;47.80;;;;;;5092181;28;892;-37
2022/04/12 04:30:12;;;;;;;;;;;22.80;47.90;;;;;;5092810;28;827;-38
2022/04/12 04:32:40;;;;;;;;;;;22.90;47.80;;;;;;5093123;28;876;-38
2022/04/12 04:35:07;;;;;;;;;;;22.90;47.80;;;;;;5092472;28;818;-36
2022/04/12 04:37:41;;;;;;;;;;;22.90;47.80;;;;;;5091880;28;1090;-37
2022/04/12 04:40:09;;;;;;;;;;;22.80;48.00;;;;;;5092631;28;1984;-38
2022/04/12 04:42:35;;;;;;;;;;;22.80;48.10;;;;;;5093196;28;1837;-37
2022/04/12 04:45:02;;;;;;;;;;;22.90;47.80;;;;;;5092319;28;951;-38
2022/04/12 04:47:29;;;;;;;;;;;22.90;47.80;;;;;;5093715;28;1013;-37
2022/04/12 04:49:57;;;;;;;;;;;22.90;47.90;;;;;;5092013;28;969;-38
2022/04/12 04:52:24;;;;;;;;;;;22.90;47.80;;;;;;5090804;28;985;-38
2022/04/12 04:54:50;;;;;;;;;;;22.90;47.90;;;;;;5091692;28;940;-38
2022/04/12 04:57:17;;;;;;;;;;;22.90;47.80;;;;;;5089988;28;978;-43
2022/04/12 04:59:44;;;;;;;;;;;23.00;48.30;;;;;;5090517;28;1978;-42
2022/04/12 05:02:10;;;;;;;;;;;23.10;48.00;;;;;;5089583;28;1014;-44
2022/04/12 05:04:37;;;;;;;;;;;23.20;47.60;;;;;;5091316;28;881;-42
2022/04/12 05:07:05;;;;;;;;;;;23.10;47.80;;;;;;5089884;28;1035;-41
2022/04/12 05:09:32;;;;;;;;;;;23.00;47.80;;;;;;5089332;28;988;-44
2022/04/12 05:11:59;;;;;;;;;;;23.10;47.70;;;;;;5090362;28;984;-40
2022/04/12 05:14:25;;;;;;;;;;;23.10;47.70;;;;;;5089966;28;916;-39
2022/04/12 05:16:52;;;;;;;;;;;23.00;48.00;;;;;;5092262;28;1026;-37
2022/04/12 05:19:19;;;;;;;;;;;23.00;48.10;;;;;;5092687;28;1979;-38
2022/04/12 05:21:46;;;;;;;;;;;22.90;48.40;;;;;;5093026;28;1027;-38
2022/04/12 05:24:14;;;;;;;;;;;22.90;48.50;;;;;;5091886;28;1015;-37
2022/04/12 05:26:40;;;;;;;;;;;22.90;48.50;;;;;;5090620;28;967;-38
2022/04/12 05:29:07;;;;;;;;;;;22.90;48.30;;;;;;5092476;28;1011;-38
2022/04/12 05:31:34;;;;;;;;;;;22.90;48.50;;;;;;5091911;28;1035;-39
2022/04/12 05:34:00;;;;;;;;;;;22.80;48.20;;;;;;5092707;28;951;-38
2022/04/12 05:36:27;;;;;;;;;;;22.90;48.30;;;;;;5092890;28;976;-39
2022/04/12 05:38:54;;;;;;;;;;;22.90;49.00;;;;;;5093078;28;1909;-38
2022/04/12 05:41:22;;;;;;;;;;;22.80;48.30;;;;;;5092928;28;996;-39
2022/04/12 05:43:49;;;;;;;;;;;22.80;48.30;;;;;;5091322;28;932;-38
2022/04/12 05:46:15;;;;;;;;;;;22.80;48.40;;;;;;5090947;28;1215;-38
2022/04/12 05:48:42;;;;;;;;;;;22.80;48.30;;;;;;5092472;28;908;-38
2022/04/12 05:51:09;;;;;;;;;;;22.80;48.30;;;;;;5091321;28;959;-38
2022/04/12 05:53:38;;;;;;;;;;;22.80;48.20;;;;;;5092118;28;992;-39
2022/04/12 05:56:05;;;;;;;;;;;22.80;48.40;;;;;;5091031;28;929;-40
2022/04/12 05:58:35;;;;;;;;;;;22.80;48.50;;;;;;5090543;28;1973;-40
2022/04/12 06:01:02;;;;;;;;;;;22.80;48.20;;;;;;5090618;28;951;-38
2022/04/12 06:03:29;;;;;;;;;;;22.80;48.20;;;;;;5091442;28;988;-39
2022/04/12 06:05:56;;;;;;;;;;;22.90;48.20;;;;;;5091596;28;856;-38
2022/04/12 06:08:22;;;;;;;;;;;22.90;48.10;;;;;;5091729;28;944;-38
2022/04/12 06:10:49;;;;;;;;;;;22.90;48.10;;;;;;5090627;28;1071;-38
2022/04/12 06:13:16;;;;;;;;;;;22.90;48.10;;;;;;5091792;28;932;-39
2022/04/12 06:15:44;;;;;;;;;;;22.90;48.00;;;;;;5091866;28;1000;-39
2022/04/12 06:18:11;;;;;;;;;;;22.90;47.90;;;;;;5091617;28;987;-39
2022/04/12 06:20:38;;;;;;;;;;;22.90;48.00;;;;;;5092081;28;2033;-39
2022/04/12 06:23:04;;;;;;;;;;;23.00;48.00;;;;;;5091237;28;929;-39
2022/04/12 06:25:31;;;;;;;;;;;22.90;48.00;;;;;;5090177;28;951;-39
2022/04/12 06:27:58;;;;;;;;;;;22.90;47.90;;;;;;5090817;28;940;-39
2022/04/12 06:30:26;;;;;;;;;;;22.90;47.90;;;;;;5089891;28;978;-39
2022/04/12 06:32:54;;;;;;;;;;;22.90;47.90;;;;;;5089521;28;875;-39
2022/04/12 06:35:21;;;;;;;;;;;22.90;47.90;;;;;;5090888;28;1019;-39
2022/04/12 06:37:48;;;;;;;;;;;22.90;48.00;;;;;;5089726;28;1024;-39
2022/04/12 06:40:19;;;;;;;;;;;22.90;48.10;;;;;;5089259;28;1906;-39
2022/04/12 06:42:46;;;;;;;;;;;22.90;48.10;;;;;;5090034;28;1014;-39
2022/04/12 06:45:13;;;;;;;;;;;22.90;48.00;;;;;;5089420;28;888;-38
2022/04/12 06:47:40;;;;;;;;;;;22.90;48.10;;;;;;5088109;28;1142;-39
2022/04/12 06:50:09;;;;;;;;;;;22.90;47.90;;;;;;5088467;28;965;-39
2022/04/12 06:52:36;;;;;;;;;;;22.90;48.00;;;;;;5089276;28;1116;-39
2022/04/12 06:55:03;;;;;;;;;;;23.00;47.80;;;;;;5088100;28;1007;-39
2022/04/12 06:57:31;;;;;;;;;;;22.90;48.00;;;;;;5088061;28;949;-39
2022/04/12 06:59:57;;;;;;;;;;;22.90;48.10;;;;;;5087529;28;1909;-38
2022/04/12 07:02:24;;;;;;;;;;;22.90;48.00;;;;;;5086561;28;997;-38
2022/04/12 07:04:51;;;;;;;;;;;22.90;48.10;;;;;;5086994;28;931;-39
2022/04/12 07:07:19;;;;;;;;;;;22.90;48.00;;;;;;5089165;28;984;-39
2022/04/12 07:09:46;;;;;;;;;;;22.90;48.00;;;;;;5087815;28;1263;-39
2022/04/12 07:12:15;;;;;;;;;;;22.90;47.90;;;;;;5089946;28;1003;-39
2022/04/12 07:14:42;;;;;;;;;;;22.90;48.10;;;;;;5088527;28;928;-39
2022/04/12 07:17:08;;;;;;;;;;;22.90;48.10;;;;;;5089051;28;1022;-39
2022/04/12 07:19:35;;;;;;;;;;;22.80;48.20;;;;;;5089061;28;1898;-38
2022/04/12 07:22:02;;;;;;;;;;;22.80;48.30;;;;;;5089056;28;925;-39
2022/04/12 07:24:30;;;;;;;;;;;22.80;48.40;;;;;;5088117;28;865;-39
2022/04/12 07:26:57;;;;;;;;;;;22.80;48.40;;;;;;5086085;28;1183;-39
2022/04/12 07:29:24;;;;;;;;;;;22.80;48.40;;;;;;5087302;28;964;-38
2022/04/12 07:31:50;;;;;;;;;;;22.80;48.30;;;;;;5087467;28;1039;-39
2022/04/12 07:34:17;;;;;;;;;;;22.80;48.40;;;;;;5089834;28;1011;-39
2022/04/12 07:36:47;;;;;;;;;;;22.80;48.40;;;;;;5087519;28;941;-39
2022/04/12 07:39:14;;;;;;;;;;;22.80;48.40;;;;;;5086846;28;2014;-39
2022/04/12 07:41:42;;;;;;;;;;;22.80;48.50;;;;;;5087108;28;887;-39
2022/04/12 07:44:09;;;;;;;;;;;22.80;48.40;;;;;;5087440;28;933;-39
2022/04/12 07:46:36;;;;;;;;;;;22.80;48.40;;;;;;5087091;28;876;-39
2022/04/12 07:49:03;;;;;;;;;;;22.80;48.40;;;;;;5086974;28;1074;-39
2022/04/12 07:51:29;;;;;;;;;;;22.80;48.40;;;;;;5085875;28;983;-39
2022/04/12 07:53:56;;;;;;;;;;;22.80;48.40;;;;;;5088158;28;1015;-39
2022/04/12 07:56:23;;;;;;;;;;;22.80;48.40;;;;;;5087680;28;1003;-39
2022/04/12 07:58:51;;;;;;;;;;;22.80;48.40;;;;;;5087478;28;835;-39
2022/04/12 08:01:18;;;;;;;;;;;22.80;48.40;;;;;;5087032;28;1750;-42
2022/04/12 08:03:44;;;;;;;;;;;22.90;48.50;;;;;;5088596;28;985;-39
2022/04/12 08:06:11;;;;;;;;;;;22.90;48.50;;;;;;5087811;28;1547;-38
2022/04/12 08:08:38;;;;;;;;;;;22.90;48.40;;;;;;5088556;28;1003;-38
2022/04/12 08:11:05;;;;;;;;;;;22.90;48.50;;;;;;5089800;28;1012;-39
2022/04/12 08:13:32;;;;;;;;;;;22.90;48.40;;;;;;5087088;28;873;-39
2022/04/12 08:16:00;;;;;;;;;;;22.90;48.40;;;;;;5087185;28;1011;-38
2022/04/12 08:18:27;;;;;;;;;;;22.90;48.40;;;;;;5087289;28;1004;-39
2022/04/12 08:20:54;;;;;;;;;;;22.90;48.40;;;;;;5087386;28;1905;-39
2022/04/12 08:23:21;;;;;;;;;;;22.90;48.40;;;;;;5089271;28;877;-39
2022/04/12 08:25:48;;;;;;;;;;;23.00;48.40;;;;;;5088806;28;1110;-38
2022/04/12 08:28:15;;;;;;;;;;;22.90;48.40;;;;;;5087901;28;1038;-39
2022/04/12 08:30:42;;;;;;;;;;;22.90;48.40;;;;;;5086632;28;1003;-39
2022/04/12 08:33:10;;;;;;;;;;;22.90;48.40;;;;;;5087450;28;893;-39
2022/04/12 08:35:37;;;;;;;;;;;22.90;48.30;;;;;;5086919;28;1032;-39
2022/04/12 08:38:04;;;;;;;;;;;22.90;48.40;;;;;;5089074;28;1064;-35
2022/04/12 08:40:31;;;;;;;;;;;22.90;48.30;;;;;;5087434;28;1930;-35
2022/04/12 08:42:59;;;;;;;;;;;22.90;48.30;;;;;;5091419;28;933;-37
2022/04/12 08:45:26;;;;;;;;;;;22.90;48.30;;;;;;5088523;28;1020;-34
2022/04/12 08:47:53;;;;;;;;;;;22.90;48.20;;;;;;5087475;28;1095;-33
2022/04/12 08:50:22;;;;;;;;;;;22.90;48.30;;;;;;5089648;28;1028;-46
2022/04/12 08:52:49;;;;;;;;;;;22.90;48.30;;;;;;5090144;28;849;-41
2022/04/12 08:55:16;;;;;;;;;;;22.90;48.30;;;;;;5089857;28;953;-41
2022/04/12 08:57:43;;;;;;;;;;;22.90;48.20;;;;;;5089138;28;1478;-42
2022/04/12 09:00:10;;;;;;;;;;;22.90;48.20;;;;;;5089644;28;1980;-42
2022/04/12 09:02:37;;;;;;;;;;;22.90;48.20;;;;;;5089890;28;885;-47
2022/04/12 09:05:06;;;;;;;;;;;22.90;48.20;;;;;;5090698;28;937;-47
2022/04/12 09:07:44;;;;;;;;;;;23.00;48.20;;;;;;5090194;28;1111;-47
2022/04/12 09:10:11;;;;;;;;;;;23.00;48.10;;;;;;5089446;28;953;-42
2022/04/12 09:12:38;;;;;;;;;;;23.00;48.10;;;;;;5090370;28;1017;-42
2022/04/12 09:15:10;;;;;;;;;;;22.90;48.10;;;;;;5088952;28;960;-47
2022/04/12 09:17:39;;;;;;;;;;;23.00;48.10;;;;;;5090208;28;1314;-46
2022/04/12 09:20:11;;;;;;;;;;;23.00;48.20;;;;;;5090645;28;1987;-47
2022/04/12 09:22:40;;;;;;;;;;;23.00;48.00;;;;;;5089686;28;913;-42
2022/04/12 09:25:09;;;;;;;;;;;23.00;47.90;;;;;;5090153;28;921;-43
2022/04/12 09:27:37;;;;;;;;;;;23.00;48.00;;;;;;5089286;28;1112;-47
2022/04/12 09:30:05;;;;;;;;;;;23.00;48.10;;;;;;5089399;28;973;-42
2022/04/12 09:32:35;;;;;;;;;;;23.00;48.00;;;;;;5089857;28;901;-46
2022/04/12 09:35:03;;;;;;;;;;;23.00;47.90;;;;;;5090549;28;1035;-46
2022/04/12 09:37:31;;;;;;;;;;;23.00;48.20;;;;;;5088950;28;997;-46
2022/04/12 09:40:07;;;;;;;;;;;23.00;47.90;;;;;;5089143;28;1975;-47
2022/04/12 09:42:41;;;;;;;;;;;23.00;48.10;;;;;;5085710;28;1849;-42
2022/04/12 09:45:09;;;;;;;;;;;23.00;48.10;;;;;;5085917;28;1005;-46
2022/04/12 09:47:36;;;;;;;;;;;23.00;48.20;;;;;;5089355;28;932;-46
2022/04/12 09:50:05;;;;;;;;;;;23.00;48.10;;;;;;5091548;28;1936;-46
2022/04/12 09:52:31;;;;;;;;;;;23.00;48.00;;;;;;5090771;28;1354;-45
2022/04/12 09:54:58;;;;;;;;;;;23.00;48.00;;;;;;5090110;28;2002;-46
2022/04/12 09:57:26;;;;;;;;;;;23.00;48.00;;;;;;5092357;28;1709;-46
2022/04/12 09:59:54;;;;;;;;;;;23.00;48.10;;;;;;5093852;28;1991;-46
2022/04/12 10:02:22;;;;;;;;;;;23.10;48.00;;;;;;5089823;28;992;-46
2022/04/12 10:04:50;;;;;;;;;;;23.10;48.00;;;;;;5090257;28;1337;-46
2022/04/12 10:07:18;;;;;;;;;;;23.10;47.90;;;;;;5090289;28;1169;-46
2022/04/12 10:09:45;;;;;;;;;;;23.10;47.90;;;;;;5087735;28;999;-46
2022/04/12 10:12:13;;;;;;;;;;;23.00;47.80;;;;;;5089482;28;1045;-46
2022/04/12 10:14:42;;;;;;;;;;;23.10;48.00;;;;;;5088772;28;932;-46
2022/04/12 10:17:09;;;;;;;;;;;23.10;48.10;;;;;;5087682;28;984;-46
2022/04/12 10:19:36;;;;;;;;;;;23.10;48.00;;;;;;5088737;28;858;-46
2022/04/12 10:22:04;;;;;;;;;;;23.10;48.00;;;;;;5087587;28;1067;-45
2022/04/12 10:24:31;;;;;;;;;;;23.10;48.10;;;;;;5089078;28;945;-46
2022/04/12 10:26:58;;;;;;;;;;;23.10;47.90;;;;;;5087291;28;932;-46
2022/04/12 10:29:25;;;;;;;;;;;23.10;47.80;;;;;;5088262;28;886;-46
2022/04/12 10:31:56;;;;;;;;;;;23.10;47.90;;;;;;5087637;28;991;-46
2022/04/12 10:34:23;;;;;;;;;;;23.10;47.90;;;;;;5088142;28;973;-45
2022/04/12 10:37:02;;;;;;;;;;;23.10;48.00;;;;;;5088184;28;983;-47
2022/04/12 10:39:30;;;;;;;;;;;23.10;47.90;;;;;;5088241;28;1200;-46
2022/04/12 10:41:58;;;;;;;;;;;23.10;48.00;;;;;;5088181;28;1914;-47
2022/04/12 10:44:25;;;;;;;;;;;23.10;47.90;;;;;;5088689;28;1013;-46
2022/04/12 10:46:52;;;;;;;;;;;23.20;47.70;;;;;;5088224;28;958;-46
2022/04/12 10:49:21;;;;;;;;;;;23.20;47.70;;;;;;5088577;28;1029;-46
2022/04/12 10:51:56;;;;;;;;;;;23.20;47.80;;;;;;5088720;28;1038;-46
2022/04/12 10:54:33;;;;;;;;;;;23.20;47.90;;;;;;5086785;28;940;-46
2022/04/12 10:57:18;;;;;;;;;;;23.10;47.90;;;;;;5087846;28;896;-46
2022/04/12 10:59:47;;;;;;;;;;;23.10;48.00;;;;;;5074544;28;1467;-47
2022/04/12 11:02:14;;;;;;;;;;;23.10;48.00;;;;;;5087827;28;1978;-46
2022/04/12 11:04:42;;;;;;;;;;;23.10;48.20;;;;;;5087867;28;853;-46
2022/04/12 11:07:09;;;;;;;;;;;23.10;48.20;;;;;;5088319;28;985;-46
2022/04/12 11:09:36;;;;;;;;;;;23.10;49.30;;;;;;5087385;28;996;-46
2022/04/12 11:12:03;;;;;;;;;;;23.10;48.10;;;;;;5089123;28;984;-46
2022/04/12 11:14:32;;;;;;;;;;;23.10;48.00;;;;;;5088680;28;1007;-46
2022/04/12 11:17:00;;;;;;;;;;;23.20;48.00;;;;;;5088668;28;1011;-46
2022/04/12 11:19:27;;;;;;;;;;;23.20;48.00;;;;;;5088821;28;983;-46
2022/04/12 11:22:02;;;;;;;;;;;23.20;48.00;;;;;;5086384;28;1984;-46
2022/04/12 11:24:29;;;;;;;;;;;23.10;48.10;;;;;;5089126;28;1016;-45
2022/04/12 11:27:03;;;;;;;;;;;23.20;48.00;;;;;;5088030;28;977;-46
2022/04/12 11:29:30;;;;;;;;;;;23.20;47.90;;;;;;5087833;28;2076;-43
2022/04/12 11:31:57;;;;;;;;;;;23.20;48.00;;;;;;5087039;28;1078;-41
2022/04/12 11:34:25;;;;;;;;;;;23.20;48.10;;;;;;5086271;28;994;-42
2022/04/12 11:36:54;;;;;;;;;;;23.20;48.00;;;;;;5086893;28;1538;-41
2022/04/12 11:39:23;;;;;;;;;;;23.20;47.90;;;;;;5085071;28;1189;-42
2022/04/12 11:41:56;;;;;;;;;;;23.20;47.90;;;;;;5086215;28;1901;-39
2022/04/12 11:44:22;;;;;;;;;;;23.20;47.90;;;;;;5087605;28;920;-42
2022/04/12 11:46:55;;;;;;;;;;;23.20;47.80;;;;;;5086908;28;948;-43
2022/04/12 11:49:27;;;;;;;;;;;23.20;47.90;;;;;;5087774;28;892;-42
2022/04/12 11:51:54;;;;;;;;;;;23.20;48.10;;;;;;5087415;28;888;-42
2022/04/12 11:54:24;;;;;;;;;;;23.20;47.80;;;;;;5088223;28;983;-42
2022/04/12 11:57:03;;;;;;;;;;;23.40;47.80;;;;;;5087797;28;975;-43
2022/04/12 11:59:31;;;;;;;;;;;23.40;47.80;;;;;;5085637;28;877;-43
2022/04/12 12:01:59;;;;;;;;;;;23.40;48.00;;;;;;5087022;28;1918;-38
2022/04/12 12:04:29;;;;;;;;;;;23.50;47.80;;;;;;5088255;28;1022;-39
2022/04/12 12:06:56;;;;;;;;;;;23.50;48.10;;;;;;5087672;28;1052;-40
2022/04/12 12:09:25;;;;;;;;;;;23.50;48.10;;;;;;5084944;28;1039;-39
2022/04/12 12:11:51;;;;;;;;;;;23.40;48.10;;;;;;5087331;28;956;-38
2022/04/12 12:14:19;;;;;;;;;;;23.50;48.30;;;;;;5086905;28;1011;-41
2022/04/12 12:17:00;;;;;;;;;;;23.50;48.10;;;;;;5088641;28;977;-38
2022/04/12 12:19:27;;;;;;;;;;;23.50;48.20;;;;;;5087545;28;1044;-39
2022/04/12 12:21:54;;;;;;;;;;;23.50;48.60;;;;;;5085887;28;1977;-40
2022/04/12 12:24:23;;;;;;;;;;;23.50;48.80;;;;;;5086838;28;863;-38
2022/04/12 12:26:55;;;;;;;;;;;23.40;48.90;;;;;;5091484;28;996;-38
2022/04/12 12:29:23;;;;;;;;;;;23.50;48.90;;;;;;5090165;28;1040;-39
2022/04/12 12:31:49;;;;;;;;;;;23.50;48.90;;;;;;5090452;28;932;-43
2022/04/12 12:34:29;;;;;;;;;;;23.50;48.80;;;;;;5091485;28;995;-39
2022/04/12 12:36:56;;;;;;;;;;;23.60;48.70;;;;;;5090830;28;981;-41
2022/04/12 12:39:26;;;;;;;;;;;23.50;48.90;;;;;;5090436;28;1111;-40
2022/04/12 12:41:57;;;;;;;;;;;23.60;48.90;;;;;;5089897;28;1897;-42
2022/04/12 12:44:25;;;;;;;;;;;23.60;48.80;;;;;;5091116;28;1019;-40
2022/04/12 12:46:55;;;;;;;;;;;23.60;48.70;;;;;;5091306;28;957;-40
2022/04/12 12:49:22;;;;;;;;;;;23.60;48.70;;;;;;5092358;28;974;-44
2022/04/12 12:51:50;;;;;;;;;;;23.60;48.70;;;;;;5089604;28;1008;-43
2022/04/12 12:54:18;;;;;;;;;;;23.60;48.60;;;;;;5090131;28;1027;-44
2022/04/12 12:56:46;;;;;;;;;;;23.60;48.60;;;;;;5086245;28;891;-45
2022/04/12 12:59:15;;;;;;;;;;;23.60;49.60;;;;;;5085574;28;1469;-44
2022/04/12 13:01:45;;;;;;;;;;;23.60;48.50;;;;;;5085507;28;1902;-44
2022/04/12 13:04:22;;;;;;;;;;;23.70;48.40;;;;;;5090425;28;901;-44
2022/04/12 13:06:59;;;;;;;;;;;23.70;48.30;;;;;;5092062;28;972;-44
2022/04/12 13:09:26;;;;;;;;;;;23.70;48.40;;;;;;5089884;28;943;-44
2022/04/12 13:11:53;;;;;;;;;;;23.70;48.30;;;;;;5090285;28;987;-45
2022/04/12 13:14:21;;;;;;;;;;;23.70;48.30;;;;;;5090121;28;951;-44
2022/04/12 13:16:48;;;;;;;;;;;23.70;48.30;;;;;;5090442;28;1034;-45
2022/04/12 13:19:15;;;;;;;;;;;23.80;48.20;;;;;;5090183;28;872;-44
2022/04/12 13:21:42;;;;;;;;;;;23.80;48.20;;;;;;5088977;28;1918;-44
2022/04/12 13:24:09;;;;;;;;;;;23.80;48.20;;;;;;5089649;28;830;-45
2022/04/12 13:26:36;;;;;;;;;;;23.80;48.00;;;;;;5091613;28;951;-44
2022/04/12 13:29:03;;;;;;;;;;;23.80;48.10;;;;;;5088491;28;876;-45
2022/04/12 13:31:31;;;;;;;;;;;23.90;48.20;;;;;;5087520;28;1501;-39
2022/04/12 13:33:58;;;;;;;;;;;23.90;48.00;;;;;;5089411;28;1711;-39
2022/04/12 13:36:25;;;;;;;;;;;24.00;47.60;;;;;;5088633;28;987;-41
2022/04/12 13:38:52;;;;;;;;;;;24.00;47.40;;;;;;5089002;28;1968;-39
2022/04/12 13:41:19;;;;;;;;;;;24.10;47.50;;;;;;5088811;28;1909;-38
2022/04/12 13:43:46;;;;;;;;;;;24.00;47.40;;;;;;5090415;28;873;-37
2022/04/12 13:46:13;;;;;;;;;;;24.00;47.70;;;;;;5091038;28;1754;-41
2022/04/12 13:48:41;;;;;;;;;;;24.00;47.90;;;;;;5089258;28;924;-43
2022/04/12 13:51:09;;;;;;;;;;;24.10;47.70;;;;;;5089351;28;1095;-38
2022/04/12 13:53:36;;;;;;;;;;;24.10;47.70;;;;;;5090856;28;1634;-38
2022/04/12 13:56:03;;;;;;;;;;;24.20;47.40;;;;;;5088464;28;1044;-38
2022/04/12 13:58:30;;;;;;;;;;;24.30;47.30;;;;;;5090487;28;1025;-39
2022/04/12 14:00:57;;;;;;;;;;;24.30;47.20;;;;;;5088959;28;1902;-38
2022/04/12 14:03:24;;;;;;;;;;;24.40;47.00;;;;;;5088440;28;937;-39
2022/04/12 14:05:53;;;;;;;;;;;24.30;47.40;;;;;;5088403;28;911;-39
2022/04/12 14:08:19;;;;;;;;;;;24.30;47.20;;;;;;5089277;28;1017;-38
2022/04/12 14:10:46;;;;;;;;;;;24.20;47.30;;;;;;5087405;28;1128;-40
2022/04/12 14:13:13;;;;;;;;;;;24.30;47.30;;;;;;5087525;28;907;-40
2022/04/12 14:15:40;;;;;;;;;;;24.30;47.20;;;;;;5088677;28;1023;-38
2022/04/12 14:18:07;;;;;;;;;;;24.30;47.30;;;;;;5088604;28;830;-38
2022/04/12 14:20:34;;;;;;;;;;;24.30;47.20;;;;;;5087240;28;885;-38
2022/04/12 14:23:02;;;;;;;;;;;24.30;47.20;;;;;;5087248;28;1985;-42
2022/04/12 14:25:29;;;;;;;;;;;24.30;47.30;;;;;;5087568;28;983;-38
2022/04/12 14:27:56;;;;;;;;;;;24.30;47.10;;;;;;5087013;28;865;-38
2022/04/12 14:30:23;;;;;;;;;;;24.30;47.10;;;;;;5086076;28;1004;-38
2022/04/12 14:32:50;;;;;;;;;;;24.30;47.10;;;;;;5085463;28;1029;-39
2022/04/12 14:35:20;;;;;;;;;;;24.30;47.20;;;;;;5089294;28;987;-38
2022/04/12 14:37:47;;;;;;;;;;;24.40;47.20;;;;;;5087029;28;1020;-39
2022/04/12 14:40:15;;;;;;;;;;;24.40;47.10;;;;;;5086481;28;1067;-39
2022/04/12 14:42:42;;;;;;;;;;;24.40;47.30;;;;;;5086981;28;1909;-39